Time;durP1;ratioP1;P1;durP2;ratioP2;P2;SDS_P1;SDS_P2;PMS_P1;PMS_P2;Temp;Humidity;BMP_temperature;BMP_pressure;BME280_temperature;BME280_humidity;BME280_pressure;Samples;Min_cycle;Max_cycle;Signal;HPM_P1;HPM_P2
2022/12/17 13:06:10;;;;;;;80.47;34.90;;;;;;;;;;5033068;28;20729;-81
2022/12/17 13:08:37;;;;;;;69.65;33.13;;;;;;;;;;5058335;28;20225;-81
2022/12/17 13:11:10;;;;;;;71.13;33.35;;;;;;;;;;5072022;28;20201;-81
2022/12/17 13:13:54;;;;;;;72.85;29.50;;;;;;;;;;5059169;28;20250;-82
2022/12/17 13:16:25;;;;;;;74.57;33.85;;;;;;;;;;5076726;28;20200;-83
2022/12/17 13:19:00;;;;;;;72.60;32.53;;;;;;;;;;5076439;28;20239;-80
2022/12/17 13:21:28;;;;;;;89.15;34.92;;;;;;;;;;5076866;28;20214;-81
2022/12/17 13:23:56;;;;;;;69.10;34.55;;;;;;;;;;5078411;28;20260;-81
2022/12/17 13:26:23;;;;;;;81.10;34.47;;;;;;;;;;5073976;28;20684;-82
2022/12/17 13:29:00;;;;;;;81.30;34.65;;;;;;;;;;5078388;28;20321;-81
2022/12/17 13:31:29;;;;;;;70.72;30.63;;;;;;;;;;5073648;28;20205;-81
2022/12/17 13:34:03;;;;;;;72.47;32.25;;;;;;;;;;5075799;28;20213;-81
2022/12/17 13:36:34;;;;;;;80.82;37.97;;;;;;;;;;5071267;28;20210;-82
2022/12/17 13:39:03;;;;;;;72.05;31.30;;;;;;;;;;5072177;28;20236;-82
2022/12/17 13:41:30;;;;;;;76.88;33.35;;;;;;;;;;5074440;28;20201;-80
2022/12/17 13:43:59;;;;;;;74.65;32.10;;;;;;;;;;5071464;28;20234;-81
2022/12/17 13:46:28;;;;;;;80.85;34.47;;;;;;;;;;5073401;28;20200;-81
2022/12/17 13:48:56;;;;;;;73.72;33.45;;;;;;;;;;5071169;28;20231;-81
2022/12/17 13:51:23;;;;;;;71.53;32.60;;;;;;;;;;5073282;28;20237;-81
2022/12/17 13:53:55;;;;;;;82.53;33.63;;;;;;;;;;5069680;28;20229;-80
2022/12/17 13:56:22;;;;;;;74.07;33.42;;;;;;;;;;5070843;28;20200;-81
2022/12/17 13:58:52;;;;;;;89.90;39.10;;;;;;;;;;5071812;28;20245;-81
2022/12/17 14:01:18;;;;;;;90.57;34.55;;;;;;;;;;5072828;28;20202;-81
2022/12/17 14:03:50;;;;;;;94.47;33.92;;;;;;;;;;5075646;28;20313;-83
2022/12/17 14:06:17;;;;;;;75.40;33.50;;;;;;;;;;5068357;28;20204;-80
2022/12/17 14:08:43;;;;;;;84.60;34.20;;;;;;;;;;5069390;28;20235;-79
2022/12/17 14:13:55;;;;;;;79.68;34.25;;;;;;;;;;5068853;28;20263;-81
2022/12/17 14:16:22;;;;;;;72.10;33.97;;;;;;;;;;5068373;28;20204;-80
2022/12/17 14:18:52;;;;;;;85.53;38.60;;;;;;;;;;5068636;28;20259;-80
2022/12/17 14:21:18;;;;;;;91.60;40.45;;;;;;;;;;5074668;28;20207;-81
2022/12/17 14:23:45;;;;;;;72.18;32.55;;;;;;;;;;5070465;28;20228;-81
2022/12/17 14:26:12;;;;;;;86.78;34.95;;;;;;;;;;5070882;28;20210;-81
2022/12/17 14:28:46;;;;;;;68.30;31.60;;;;;;;;;;5077720;28;20246;-81
2022/12/17 14:31:16;;;;;;;81.50;34.20;;;;;;;;;;5069599;28;20189;-81
2022/12/17 14:33:43;;;;;;;78.10;32.47;;;;;;;;;;5073783;28;20477;-82
2022/12/17 14:36:18;;;;;;;74.28;33.53;;;;;;;;;;5077080;28;20212;-80
2022/12/17 14:38:50;;;;;;;96.80;35.30;;;;;;;;;;5067106;28;20257;-80
2022/12/17 14:44:01;;;;;;;84.63;35.30;;;;;;;;;;5070119;28;20720;-82
2022/12/17 14:46:28;;;;;;;87.70;31.85;;;;;;;;;;5063635;28;20220;-83
2022/12/17 14:49:01;;;;;;;89.25;33.38;;;;;;;;;;5070118;28;20240;-81
2022/12/17 14:51:31;;;;;;;72.32;32.40;;;;;;;;;;5074242;28;20704;-80
2022/12/17 14:54:16;;;;;;;88.97;30.80;;;;;;;;;;5071309;28;20230;-80
2022/12/17 14:56:50;;;;;;;84.38;32.65;;;;;;;;;;5075976;28;20201;-82
2022/12/17 14:59:23;;;;;;;72.22;32.13;;;;;;;;;;5069486;28;20224;-81
2022/12/17 15:01:49;;;;;;;62.03;26.77;;;;;;;;;;5069348;28;20202;-80
2022/12/17 15:04:16;;;;;;;79.78;31.25;;;;;;;;;;5072277;28;20222;-82
2022/12/17 15:06:44;;;;;;;74.50;32.67;;;;;;;;;;5070165;28;20211;-81
2022/12/17 15:09:11;;;;;;;71.40;32.65;;;;;;;;;;5075698;28;20729;-82
2022/12/17 15:11:37;;;;;;;71.05;33.13;;;;;;;;;;5077011;28;20212;-80
2022/12/17 15:14:04;;;;;;;76.32;31.35;;;;;;;;;;5072439;28;20208;-81
2022/12/17 15:16:30;;;;;;;78.00;34.20;;;;;;;;;;5073056;28;20196;-81
2022/12/17 15:18:56;;;;;;;68.03;31.52;;;;;;;;;;5074113;28;20721;-80
2022/12/17 15:21:23;;;;;;;73.45;29.63;;;;;;;;;;5073691;28;20204;-81
2022/12/17 15:23:51;;;;;;;74.95;32.20;;;;;;;;;;5073239;28;20236;-81
2022/12/17 15:26:18;;;;;;;79.80;34.28;;;;;;;;;;5076015;28;20222;-80
2022/12/17 15:28:45;;;;;;;76.75;32.13;;;;;;;;;;5075643;28;20258;-81
2022/12/17 15:31:12;;;;;;;82.15;34.85;;;;;;;;;;5077020;28;20197;-81
2022/12/17 15:33:38;;;;;;;85.38;34.70;;;;;;;;;;5075292;28;20228;-80
2022/12/17 15:36:05;;;;;;;79.55;32.13;;;;;;;;;;5074018;28;20189;-81
2022/12/17 15:38:31;;;;;;;95.43;35.42;;;;;;;;;;5075451;28;20224;-80
2022/12/17 15:43:09;;;;;;;85.50;36.85;;;;;;;;;;5076790;28;20214;-81
2022/12/17 15:43:46;;;;;;;98.32;36.40;;;;;;;;;;5070475;28;20239;-80
2022/12/17 15:46:12;;;;;;;96.47;36.20;;;;;;;;;;5075441;28;20220;-81
2022/12/17 15:48:38;;;;;;;96.88;36.15;;;;;;;;;;5078760;28;20236;-80
2022/12/17 15:51:05;;;;;;;88.75;38.30;;;;;;;;;;5074279;28;20208;-82
2022/12/17 15:53:31;;;;;;;90.43;36.95;;;;;;;;;;5074233;28;20204;-82
2022/12/17 15:55:59;;;;;;;98.65;37.70;;;;;;;;;;5065784;28;20198;-80
2022/12/17 15:58:26;;;;;;;79.38;35.78;;;;;;;;;;5074326;28;20235;-83
2022/12/17 16:00:53;;;;;;;81.20;37.03;;;;;;;;;;5070746;28;20207;-81
2022/12/17 16:03:19;;;;;;;102.38;37.70;;;;;;;;;;5072962;28;20220;-81
2022/12/17 16:05:46;;;;;;;85.15;35.55;;;;;;;;;;5071620;28;20296;-80
2022/12/17 16:08:12;;;;;;;102.72;37.20;;;;;;;;;;5071857;28;20238;-81
2022/12/17 16:10:39;;;;;;;87.95;34.95;;;;;;;;;;5074148;28;20682;-84
2022/12/17 16:13:05;;;;;;;78.28;34.40;;;;;;;;;;5075546;28;20993;-81
2022/12/17 16:15:33;;;;;;;94.40;36.22;;;;;;;;;;5075959;28;20208;-80
2022/12/17 16:17:59;;;;;;;102.38;36.65;;;;;;;;;;5072441;28;20233;-81
2022/12/17 16:20:25;;;;;;;103.72;40.53;;;;;;;;;;5076517;28;20183;-81
2022/12/17 16:22:52;;;;;;;108.90;40.22;;;;;;;;;;5075703;28;20849;-84
2022/12/17 16:25:18;;;;;;;98.05;40.22;;;;;;;;;;5075410;28;20232;-81
2022/12/17 16:27:45;;;;;;;92.95;38.75;;;;;;;;;;5067976;28;20319;-81
2022/12/17 16:30:12;;;;;;;95.80;38.05;;;;;;;;;;5076481;28;20199;-81
2022/12/17 16:32:39;;;;;;;105.72;35.35;;;;;;;;;;5066964;28;20235;-80
2022/12/17 16:35:06;;;;;;;88.18;37.30;;;;;;;;;;5081385;28;20196;-82
2022/12/17 16:37:33;;;;;;;100.20;36.47;;;;;;;;;;5072373;28;20237;-81
2022/12/17 16:39:59;;;;;;;114.38;35.38;;;;;;;;;;5071906;28;20205;-81
2022/12/17 16:42:25;;;;;;;95.90;37.42;;;;;;;;;;5079384;28;20228;-80
2022/12/17 16:44:51;;;;;;;82.75;33.83;;;;;;;;;;5070483;28;20304;-81
2022/12/17 16:47:18;;;;;;;92.13;35.38;;;;;;;;;;5071860;28;20231;-81
2022/12/17 16:49:46;;;;;;;99.22;35.80;;;;;;;;;;5064080;28;20209;-82
2022/12/17 16:52:12;;;;;;;85.45;33.83;;;;;;;;;;5066544;28;20223;-83
2022/12/17 16:54:38;;;;;;;83.00;32.53;;;;;;;;;;5069730;28;20206;-82
2022/12/17 16:57:06;;;;;;;67.03;30.05;;;;;;;;;;5071451;28;20227;-82
2022/12/17 16:59:32;;;;;;;67.50;33.03;;;;;;;;;;5066613;28;20587;-81
2022/12/17 17:01:59;;;;;;;61.55;27.30;;;;;;;;;;5067902;28;20228;-81
2022/12/17 17:04:25;;;;;;;76.00;30.38;;;;;;;;;;5071435;28;20204;-81
2022/12/17 17:06:54;;;;;;;67.07;28.98;;;;;;;;;;5075058;28;20203;-81
2022/12/17 17:09:21;;;;;;;66.40;29.05;;;;;;;;;;5071937;28;20361;-80
2022/12/17 17:11:47;;;;;;;59.97;28.75;;;;;;;;;;5074580;28;20202;-80
2022/12/17 17:14:14;;;;;;;83.63;34.42;;;;;;;;;;5073252;28;20207;-81
2022/12/17 17:16:40;;;;;;;55.38;26.08;;;;;;;;;;5071849;28;20204;-81
2022/12/17 17:19:07;;;;;;;74.82;27.00;;;;;;;;;;5072301;28;20719;-81
2022/12/17 17:21:34;;;;;;;56.72;25.52;;;;;;;;;;5074279;28;20707;-80
2022/12/17 17:24:03;;;;;;;60.80;26.02;;;;;;;;;;5072407;28;20233;-81
2022/12/17 17:26:31;;;;;;;58.20;24.88;;;;;;;;;;5071001;28;20224;-81
2022/12/17 17:28:57;;;;;;;57.40;24.63;;;;;;;;;;5072444;28;20228;-81
2022/12/17 17:31:24;;;;;;;74.22;27.23;;;;;;;;;;5068254;28;20199;-81
2022/12/17 17:33:51;;;;;;;50.97;26.23;;;;;;;;;;5073855;28;20226;-81
2022/12/17 17:36:18;;;;;;;56.10;24.63;;;;;;;;;;5073925;28;20210;-80
2022/12/17 17:38:46;;;;;;;46.60;24.10;;;;;;;;;;5070600;28;20240;-81
2022/12/17 17:41:15;;;;;;;55.08;26.85;;;;;;;;;;5079661;28;20204;-81
2022/12/17 17:43:41;;;;;;;46.90;22.65;;;;;;;;;;5076766;28;20228;-82
2022/12/17 17:46:08;;;;;;;55.38;24.80;;;;;;;;;;5076889;28;20222;-80
2022/12/17 17:48:35;;;;;;;50.55;25.73;;;;;;;;;;5073019;28;20249;-82
2022/12/17 17:51:02;;;;;;;57.72;24.20;;;;;;;;;;5069895;28;20214;-81
2022/12/17 17:53:29;;;;;;;49.80;26.52;;;;;;;;;;5068649;28;20217;-80
2022/12/17 17:55:55;;;;;;;62.55;25.83;;;;;;;;;;5070590;28;20716;-82
2022/12/17 17:58:23;;;;;;;54.35;25.15;;;;;;;;;;5070834;28;20223;-80
2022/12/17 18:00:50;;;;;;;57.40;25.25;;;;;;;;;;5066308;28;20207;-80
2022/12/17 18:03:16;;;;;;;44.47;22.55;;;;;;;;;;5072724;28;20221;-80
2022/12/17 18:05:43;;;;;;;52.40;25.10;;;;;;;;;;5067998;28;20589;-81
2022/12/17 18:08:09;;;;;;;62.75;25.02;;;;;;;;;;5065721;28;20225;-80
2022/12/17 18:10:35;;;;;;;61.35;28.38;;;;;;;;;;5073818;28;20680;-82
2022/12/17 18:15:47;;;;;;;57.75;28.77;;;;;;;;;;5070110;28;20200;-81
2022/12/17 18:18:13;;;;;;;54.38;26.75;;;;;;;;;;5072348;28;20234;-80
2022/12/17 18:20:40;;;;;;;58.60;26.20;;;;;;;;;;5076378;28;20292;-82
2022/12/17 18:23:09;;;;;;;54.10;26.63;;;;;;;;;;5074682;28;20225;-82
2022/12/17 18:25:36;;;;;;;47.50;23.92;;;;;;;;;;5071186;28;20224;-80
2022/12/17 18:28:02;;;;;;;59.92;25.65;;;;;;;;;;5071136;28;20233;-81
2022/12/17 18:30:28;;;;;;;61.25;27.40;;;;;;;;;;5068073;28;20584;-81
2022/12/17 18:32:56;;;;;;;54.75;30.23;;;;;;;;;;5075765;28;20236;-82
2022/12/17 18:35:22;;;;;;;55.42;25.85;;;;;;;;;;5069710;28;20201;-80
2022/12/17 18:37:49;;;;;;;59.38;28.95;;;;;;;;;;5067769;28;20231;-80
2022/12/17 18:40:15;;;;;;;59.47;25.65;;;;;;;;;;5070426;28;20227;-81
2022/12/17 18:45:26;;;;;;;63.10;29.33;;;;;;;;;;5073790;28;20742;-82
2022/12/17 18:47:53;;;;;;;59.42;25.40;;;;;;;;;;5080835;28;20233;-82
2022/12/17 18:50:20;;;;;;;63.28;30.02;;;;;;;;;;5083471;28;20207;-80
2022/12/17 18:52:47;;;;;;;53.45;26.42;;;;;;;;;;5081386;28;20238;-81
2022/12/17 18:55:13;;;;;;;57.45;27.85;;;;;;;;;;5079858;28;20662;-81
2022/12/17 18:57:40;;;;;;;55.05;26.80;;;;;;;;;;5079040;28;20228;-81
2022/12/17 19:00:07;;;;;;;60.75;29.80;;;;;;;;;;5074041;28;20193;-80
2022/12/17 19:02:33;;;;;;;69.97;28.17;;;;;;;;;;5067982;28;20220;-83
2022/12/17 19:04:59;;;;;;;64.30;29.27;;;;;;;;;;5075735;28;20209;-81
2022/12/17 19:07:27;;;;;;;56.92;27.83;;;;;;;;;;5071661;28;20225;-80
2022/12/17 19:09:53;;;;;;;77.20;32.33;;;;;;;;;;5074134;28;20209;-81
2022/12/17 19:12:20;;;;;;;58.42;30.52;;;;;;;;;;5073485;28;20308;-80
2022/12/17 19:14:46;;;;;;;61.17;29.85;;;;;;;;;;5074595;28;20201;-80
2022/12/17 19:17:12;;;;;;;59.53;28.73;;;;;;;;;;5075843;28;20218;-80
2022/12/17 19:19:39;;;;;;;62.00;31.23;;;;;;;;;;5073161;28;20205;-81
2022/12/17 19:22:05;;;;;;;58.42;29.27;;;;;;;;;;5072557;28;20252;-80
2022/12/17 19:24:36;;;;;;;68.47;33.55;;;;;;;;;;5073209;28;20284;-82
2022/12/17 19:27:02;;;;;;;67.00;28.48;;;;;;;;;;5064960;28;20239;-80
2022/12/17 19:29:29;;;;;;;61.25;32.25;;;;;;;;;;5069997;28;20659;-81
2022/12/17 19:31:55;;;;;;;56.03;29.30;;;;;;;;;;5074077;28;20224;-82
2022/12/17 19:34:22;;;;;;;67.97;31.75;;;;;;;;;;5077266;28;20201;-80
2022/12/17 19:36:48;;;;;;;62.10;29.92;;;;;;;;;;5070535;28;20232;-80
2022/12/17 19:39:15;;;;;;;55.30;29.10;;;;;;;;;;5075623;28;20364;-80
2022/12/17 19:41:43;;;;;;;57.67;29.60;;;;;;;;;;5075768;28;20203;-80
2022/12/17 19:44:12;;;;;;;56.78;28.33;;;;;;;;;;5072104;28;20700;-80
2022/12/17 19:46:38;;;;;;;56.67;27.83;;;;;;;;;;5073128;28;20236;-80
2022/12/17 19:49:06;;;;;;;66.70;30.90;;;;;;;;;;5071923;28;20225;-80
2022/12/17 19:51:33;;;;;;;65.72;32.33;;;;;;;;;;5079673;28;20201;-80
2022/12/17 19:53:59;;;;;;;69.10;31.08;;;;;;;;;;5070797;28;20725;-80
2022/12/17 19:56:27;;;;;;;53.33;28.10;;;;;;;;;;5074328;28;20204;-80
2022/12/17 19:58:55;;;;;;;66.30;31.25;;;;;;;;;;5076122;28;20254;-82
2022/12/17 20:01:23;;;;;;;58.85;29.90;;;;;;;;;;5075252;28;20215;-81
2022/12/17 20:03:49;;;;;;;55.80;28.65;;;;;;;;;;5078550;28;20263;-82
2022/12/17 20:06:17;;;;;;;58.58;28.63;;;;;;;;;;5076912;28;20219;-80
2022/12/17 20:08:43;;;;;;;57.40;28.08;;;;;;;;;;5070239;28;20233;-82
2022/12/17 20:13:52;;;;;;;65.85;29.92;;;;;;;;;;5070768;28;20276;-80
2022/12/17 20:16:20;;;;;;;57.97;29.02;;;;;;;;;;5072072;28;20204;-80
2022/12/17 20:18:46;;;;;;;62.00;28.05;;;;;;;;;;5069679;28;20232;-80
2022/12/17 20:21:13;;;;;;;50.42;27.83;;;;;;;;;;5070472;28;20203;-80
2022/12/17 20:23:40;;;;;;;56.17;28.65;;;;;;;;;;5072325;28;20245;-82
2022/12/17 20:26:07;;;;;;;60.75;28.70;;;;;;;;;;5073143;28;20227;-80
2022/12/17 20:28:34;;;;;;;65.85;31.23;;;;;;;;;;5074970;28;20315;-82
2022/12/17 20:31:00;;;;;;;59.22;28.95;;;;;;;;;;5074917;28;20207;-81
2022/12/17 20:33:28;;;;;;;66.47;29.17;;;;;;;;;;5073631;28;20256;-79
2022/12/17 20:35:54;;;;;;;49.45;26.55;;;;;;;;;;5071870;28;20280;-82
2022/12/17 20:38:21;;;;;;;55.45;27.30;;;;;;;;;;5071401;28;20224;-80
2022/12/17 20:40:47;;;;;;;63.17;27.02;;;;;;;;;;5073277;28;20205;-80
2022/12/17 20:43:14;;;;;;;59.22;25.92;;;;;;;;;;5074715;28;20217;-80
2022/12/17 20:45:47;;;;;;;57.47;26.92;;;;;;;;;;5071727;28;20205;-81
2022/12/17 20:48:13;;;;;;;51.33;26.83;;;;;;;;;;5071925;28;20224;-80
2022/12/17 20:50:41;;;;;;;61.42;30.25;;;;;;;;;;5079253;28;20326;-80
2022/12/17 20:53:07;;;;;;;56.55;28.60;;;;;;;;;;5070220;28;20222;-80
2022/12/17 20:55:34;;;;;;;68.05;27.10;;;;;;;;;;5076051;28;20284;-83
2022/12/17 20:58:00;;;;;;;63.90;28.65;;;;;;;;;;5067627;28;20258;-80
2022/12/17 21:00:27;;;;;;;59.80;29.02;;;;;;;;;;5068979;28;20295;-80
2022/12/17 21:02:53;;;;;;;58.20;26.23;;;;;;;;;;5067029;28;20232;-80
2022/12/17 21:05:19;;;;;;;68.47;29.10;;;;;;;;;;5071067;28;20208;-80
2022/12/17 21:07:48;;;;;;;52.42;27.10;;;;;;;;;;5067950;28;20239;-79
2022/12/17 21:10:15;;;;;;;65.43;28.33;;;;;;;;;;5071643;28;20200;-80
2022/12/17 21:15:28;;;;;;;59.97;28.55;;;;;;;;;;5063624;28;20266;-81
2022/12/17 21:17:54;;;;;;;57.80;27.40;;;;;;;;;;5068434;28;20225;-82
2022/12/17 21:20:21;;;;;;;63.25;29.35;;;;;;;;;;5072596;28;20670;-82
2022/12/17 21:22:48;;;;;;;51.55;25.83;;;;;;;;;;5070988;28;20232;-81
2022/12/17 21:25:15;;;;;;;48.70;25.20;;;;;;;;;;5076691;28;20194;-79
2022/12/17 21:27:41;;;;;;;63.78;28.85;;;;;;;;;;5066962;28;20228;-81
2022/12/17 21:30:08;;;;;;;56.97;27.00;;;;;;;;;;5066838;28;20197;-81
2022/12/17 21:32:34;;;;;;;55.65;26.88;;;;;;;;;;5068080;28;20248;-79
2022/12/17 21:35:01;;;;;;;56.67;27.77;;;;;;;;;;5071454;28;20208;-80
2022/12/17 21:37:27;;;;;;;52.85;26.48;;;;;;;;;;5075650;28;20232;-81
2022/12/17 21:39:55;;;;;;;62.92;29.27;;;;;;;;;;5074208;28;20209;-81
2022/12/17 21:45:05;;;;;;;60.38;27.67;;;;;;;;;;5070229;28;20205;-80
2022/12/17 21:47:32;;;;;;;61.33;29.08;;;;;;;;;;5071943;28;20228;-81
2022/12/17 21:49:58;;;;;;;56.38;27.33;;;;;;;;;;5069710;28;20197;-80
2022/12/17 21:52:25;;;;;;;56.85;28.40;;;;;;;;;;5070752;28;20244;-82
2022/12/17 21:54:51;;;;;;;66.85;30.98;;;;;;;;;;5069392;28;20261;-80
2022/12/17 21:57:20;;;;;;;48.90;26.50;;;;;;;;;;5067681;28;20237;-79
2022/12/17 21:59:47;;;;;;;56.78;26.23;;;;;;;;;;5061524;28;20201;-79
2022/12/17 22:02:13;;;;;;;51.17;25.40;;;;;;;;;;5058799;28;20233;-79
2022/12/17 22:04:40;;;;;;;58.47;28.23;;;;;;;;;;5067123;28;20208;-80
2022/12/17 22:07:06;;;;;;;60.60;26.77;;;;;;;;;;5066278;28;20245;-79
2022/12/17 22:09:33;;;;;;;60.22;28.02;;;;;;;;;;5067196;28;20213;-79
2022/12/17 22:14:44;;;;;;;52.05;24.40;;;;;;;;;;5067128;28;20656;-79
2022/12/17 22:17:11;;;;;;;64.00;27.05;;;;;;;;;;5068963;28;20221;-79
2022/12/17 22:19:37;;;;;;;55.85;28.77;;;;;;;;;;5068580;28;20203;-79
2022/12/17 22:22:03;;;;;;;57.42;27.65;;;;;;;;;;5062137;28;20229;-80
2022/12/17 22:24:30;;;;;;;62.90;27.38;;;;;;;;;;5072083;28;20200;-79
2022/12/17 22:26:59;;;;;;;68.35;30.45;;;;;;;;;;5071193;28;20240;-79
2022/12/17 22:34:51;;;;;;;49.40;26.77;;;;;;;;;;5062895;28;20212;-79
2022/12/17 22:37:18;;;;;;;57.08;29.25;;;;;;;;;;5063738;28;20237;-80
2022/12/17 22:39:45;;;;;;;56.72;29.92;;;;;;;;;;5064910;28;20224;-80
2022/12/17 22:44:57;;;;;;;57.50;26.30;;;;;;;;;;5066782;28;20239;-79
2022/12/17 22:47:25;;;;;;;66.97;28.52;;;;;;;;;;5065961;28;20228;-80
2022/12/17 22:49:52;;;;;;;57.97;28.15;;;;;;;;;;5061669;28;20216;-79
2022/12/17 22:52:18;;;;;;;60.03;27.83;;;;;;;;;;5061636;28;20229;-81
2022/12/17 22:54:44;;;;;;;56.38;28.80;;;;;;;;;;5051619;28;20250;-79
2022/12/17 22:57:11;;;;;;;53.78;28.77;;;;;;;;;;5065049;28;20221;-80
2022/12/17 22:59:37;;;;;;;50.90;28.05;;;;;;;;;;5065925;28;20556;-79
2022/12/17 23:02:03;;;;;;;61.70;28.73;;;;;;;;;;5067165;28;20599;-79
2022/12/17 23:04:31;;;;;;;50.63;26.25;;;;;;;;;;5070312;28;20200;-79
2022/12/17 23:06:57;;;;;;;55.08;24.90;;;;;;;;;;5067618;28;20233;-80
2022/12/17 23:09:25;;;;;;;58.30;26.88;;;;;;;;;;5064758;28;20196;-79
2022/12/17 23:11:52;;;;;;;56.28;28.33;;;;;;;;;;5062559;28;20720;-80
2022/12/17 23:14:19;;;;;;;53.22;27.95;;;;;;;;;;5067856;28;20194;-80
2022/12/17 23:16:45;;;;;;;57.17;25.75;;;;;;;;;;5061242;28;20693;-79
2022/12/17 23:19:12;;;;;;;48.80;25.00;;;;;;;;;;5064765;28;20231;-79
2022/12/17 23:21:41;;;;;;;53.50;25.83;;;;;;;;;;5061736;28;20201;-79
2022/12/17 23:24:07;;;;;;;50.45;24.98;;;;;;;;;;5068099;28;20208;-80
2022/12/17 23:26:35;;;;;;;45.00;25.15;;;;;;;;;;5065041;28;20225;-79
2022/12/17 23:29:02;;;;;;;73.13;24.90;;;;;;;;;;5063115;28;20229;-79
2022/12/17 23:31:31;;;;;;;55.25;26.15;;;;;;;;;;5068064;28;20196;-82
2022/12/17 23:33:59;;;;;;;47.25;24.05;;;;;;;;;;5062253;28;20232;-79
2022/12/17 23:36:25;;;;;;;47.20;23.92;;;;;;;;;;5068644;28;20579;-79
2022/12/17 23:38:54;;;;;;;50.78;25.15;;;;;;;;;;5069520;28;20232;-79
2022/12/17 23:41:21;;;;;;;54.53;25.50;;;;;;;;;;5073925;28;20206;-80
2022/12/17 23:43:48;;;;;;;42.80;22.45;;;;;;;;;;5075843;28;20229;-80
2022/12/17 23:46:15;;;;;;;48.28;25.48;;;;;;;;;;5079999;28;20234;-80
2022/12/17 23:48:42;;;;;;;50.97;27.00;;;;;;;;;;5072896;28;20610;-79
2022/12/17 23:51:09;;;;;;;44.80;22.55;;;;;;;;;;5069718;28;20217;-79
2022/12/17 23:53:37;;;;;;;51.08;24.77;;;;;;;;;;5062013;28;20620;-80
2022/12/17 23:56:09;;;;;;;52.42;23.75;;;;;;;;;;5055312;28;20193;-79
2022/12/17 23:58:37;;;;;;;48.67;24.13;;;;;;;;;;5058869;28;20713;-79
